createdAt,value
2023-05-01T00:00:15.000Z,64.07
2023-05-01T00:01:15.000Z,63.96
2023-05-01T00:02:15.000Z,63.54
2023-05-01T00:03:17.000Z,62.99
2023-05-01T00:04:15.000Z,63.07
2023-05-01T00:05:15.000Z,63.16
2023-05-01T00:06:15.000Z,63.07
2023-05-01T00:07:15.000Z,62.87
2023-05-01T00:08:15.000Z,62.34
2023-05-01T00:09:15.000Z,62.12
2023-05-01T00:10:15.000Z,61.98
2023-05-01T00:11:15.000Z,61.97
2023-05-01T00:12:15.000Z,61.96
2023-05-01T00:13:16.000Z,61.25
2023-05-01T00:14:15.000Z,61.15
2023-05-01T00:15:15.000Z,61.37
2023-05-01T00:16:16.000Z,60.85
2023-05-01T00:17:15.000Z,61.12
2023-05-01T00:18:15.000Z,61.21
2023-05-01T00:19:18.000Z,61.34
2023-05-01T00:20:15.000Z,61.14
2023-05-01T00:21:15.000Z,61.27
2023-05-01T00:22:15.000Z,61.24
2023-05-01T00:23:15.000Z,61.14
2023-05-01T00:24:15.000Z,61.14
2023-05-01T00:25:15.000Z,61.02
2023-05-01T00:26:15.000Z,61.06
2023-05-01T00:27:15.000Z,61.12
2023-05-01T00:28:17.000Z,61.19
2023-05-01T00:29:15.000Z,61.06
2023-05-01T00:30:15.000Z,61.00
2023-05-01T00:31:14.000Z,61.01
2023-05-01T00:32:14.000Z,60.87
2023-05-01T00:33:14.000Z,60.72
2023-05-01T00:34:15.000Z,60.87
2023-05-01T00:35:15.000Z,60.79
2023-05-01T00:36:14.000Z,60.86
2023-05-01T00:37:15.000Z,60.77
2023-05-01T00:38:14.000Z,60.59
2023-05-01T00:39:15.000Z,60.64
2023-05-01T00:40:14.000Z,60.72
2023-05-01T00:41:15.000Z,60.81
2023-05-01T00:42:15.000Z,60.72
2023-05-01T00:43:14.000Z,60.87
2023-05-01T00:44:15.000Z,60.88
2023-05-01T00:45:14.000Z,60.79
2023-05-01T00:46:14.000Z,60.82
2023-05-01T00:47:15.000Z,60.91
2023-05-01T00:48:15.000Z,60.78
2023-05-01T00:49:16.000Z,60.77
2023-05-01T00:50:15.000Z,61.01
2023-05-01T00:51:14.000Z,61.05
2023-05-01T00:52:14.000Z,61.05
2023-05-01T00:53:15.000Z,60.98
2023-05-01T00:54:16.000Z,61.09
2023-05-01T00:55:15.000Z,61.10
2023-05-01T00:56:15.000Z,61.09
2023-05-01T00:57:14.000Z,61.03
2023-05-01T00:58:16.000Z,61.04
2023-05-01T00:59:14.000Z,61.25
2023-05-01T01:00:17.000Z,61.26
2023-05-01T01:01:14.000Z,61.42
2023-05-01T01:02:14.000Z,61.38
2023-05-01T01:03:14.000Z,61.26
2023-05-01T01:04:14.000Z,61.42
2023-05-01T01:05:14.000Z,61.33
2023-05-01T01:06:38.000Z,61.33
2023-05-01T01:07:25.000Z,61.45
2023-05-01T01:08:24.000Z,61.36
2023-05-01T01:09:24.000Z,61.32
2023-05-01T01:10:36.000Z,61.41
2023-05-01T01:11:25.000Z,61.74
2023-05-01T01:12:35.000Z,61.64
2023-05-01T01:13:24.000Z,61.87
2023-05-01T01:14:26.000Z,61.95
2023-05-01T01:15:37.000Z,62.00
2023-05-01T01:16:23.000Z,62.12
2023-05-01T01:17:45.000Z,62.48
2023-05-01T01:18:30.000Z,62.38
2023-05-01T01:19:38.000Z,62.23
2023-05-01T01:20:26.000Z,62.21
2023-05-01T01:21:24.000Z,62.25
2023-05-01T01:22:21.000Z,62.41
2023-05-01T01:23:33.000Z,62.43
2023-05-01T01:24:24.000Z,62.54
2023-05-01T01:25:24.000Z,62.38
2023-05-01T01:26:25.000Z,62.30
2023-05-01T01:27:28.000Z,62.43
2023-05-01T01:28:42.000Z,62.44
2023-05-01T01:29:24.000Z,62.62
2023-05-01T01:30:35.000Z,62.46
2023-05-01T01:31:19.000Z,62.65
2023-05-01T01:32:24.000Z,62.77
2023-05-01T01:33:37.000Z,62.76
2023-05-01T01:34:22.000Z,62.94
2023-05-01T01:35:18.000Z,62.88
2023-05-01T01:36:18.000Z,62.88
2023-05-01T01:37:26.000Z,63.10
2023-05-01T01:38:20.000Z,62.80
2023-05-01T01:39:25.000Z,62.84
2023-05-01T01:40:18.000Z,62.95
2023-05-01T01:41:27.000Z,62.94
2023-05-01T01:42:19.000Z,63.11
2023-05-01T01:43:17.000Z,63.04
2023-05-01T01:44:20.000Z,63.40
2023-05-01T01:45:19.000Z,63.34
2023-05-01T01:46:16.000Z,63.07
2023-05-01T01:47:17.000Z,63.18
2023-05-01T01:48:22.000Z,63.24
2023-05-01T01:49:19.000Z,63.37
2023-05-01T01:50:16.000Z,63.24
2023-05-01T01:51:17.000Z,63.18
2023-05-01T01:52:16.000Z,63.38
2023-05-01T01:53:17.000Z,63.58
2023-05-01T01:54:21.000Z,63.66
2023-05-01T01:55:19.000Z,63.56
2023-05-01T01:56:17.000Z,63.54
2023-05-01T01:57:17.000Z,63.47
2023-05-01T01:58:19.000Z,63.55
2023-05-01T01:59:15.000Z,63.70
2023-05-01T02:00:16.000Z,63.40
2023-05-01T02:01:16.000Z,63.50
2023-05-01T02:02:17.000Z,63.69
2023-05-01T02:03:15.000Z,63.34
2023-05-01T02:04:16.000Z,63.34
2023-05-01T02:05:17.000Z,63.66
2023-05-01T02:06:15.000Z,63.80
2023-05-01T02:07:17.000Z,63.62
2023-05-01T02:08:16.000Z,63.46
2023-05-01T02:09:17.000Z,63.42
2023-05-01T02:10:16.000Z,63.51
2023-05-01T02:11:18.000Z,63.90
2023-05-01T02:12:16.000Z,63.83
2023-05-01T02:13:16.000Z,63.57
2023-05-01T02:14:16.000Z,63.74
2023-05-01T02:15:16.000Z,63.72
2023-05-01T02:16:16.000Z,63.64
2023-05-01T02:17:16.000Z,63.86
2023-05-01T02:18:15.000Z,63.80
2023-05-01T02:19:16.000Z,64.06
2023-05-01T02:20:15.000Z,63.92
2023-05-01T02:21:16.000Z,64.07
2023-05-01T02:22:16.000Z,64.04
2023-05-01T02:23:15.000Z,63.79
2023-05-01T02:24:16.000Z,63.80
2023-05-01T02:25:15.000Z,63.88
2023-05-01T02:26:16.000Z,64.02
2023-05-01T02:27:21.000Z,63.76
2023-05-01T02:28:19.000Z,63.48
2023-05-01T02:29:14.000Z,63.55
2023-05-01T02:30:15.000Z,63.68
2023-05-01T02:31:14.000Z,63.67
2023-05-01T02:32:15.000Z,63.61
2023-05-01T02:33:15.000Z,63.43
2023-05-01T02:34:14.000Z,63.38
2023-05-01T02:35:16.000Z,63.49
2023-05-01T02:36:14.000Z,63.46
2023-05-01T02:37:15.000Z,63.63
2023-05-01T02:38:15.000Z,63.72
2023-05-01T02:39:15.000Z,63.19
2023-05-01T02:40:15.000Z,63.12
2023-05-01T02:41:17.000Z,63.19
2023-05-01T02:42:18.000Z,63.27
2023-05-01T02:43:18.000Z,63.26
2023-05-01T02:44:16.000Z,63.13
2023-05-01T02:45:20.000Z,63.11
2023-05-01T02:46:16.000Z,63.09
2023-05-01T02:47:18.000Z,62.94
2023-05-01T02:48:23.000Z,62.88
2023-05-01T02:49:15.000Z,62.96
2023-05-01T02:50:15.000Z,63.02
2023-05-01T02:51:18.000Z,62.96
2023-05-01T02:52:16.000Z,62.80
2023-05-01T02:53:15.000Z,62.68
2023-05-01T02:54:15.000Z,62.87
2023-05-01T02:55:15.000Z,63.16
2023-05-01T02:56:15.000Z,62.90
2023-05-01T02:57:16.000Z,62.80
2023-05-01T02:58:16.000Z,63.03
2023-05-01T02:59:15.000Z,62.97
2023-05-01T03:00:15.000Z,62.80
2023-05-01T03:01:15.000Z,62.75
2023-05-01T03:02:14.000Z,62.57
2023-05-01T03:03:15.000Z,62.50
2023-05-01T03:04:14.000Z,62.69
2023-05-01T03:05:15.000Z,62.62
2023-05-01T03:06:14.000Z,62.52
2023-05-01T03:07:15.000Z,62.44
2023-05-01T03:08:14.000Z,62.23
2023-05-01T03:09:14.000Z,62.14
2023-05-01T03:10:15.000Z,62.24
2023-05-01T03:11:15.000Z,62.12
2023-05-01T03:12:15.000Z,62.16
2023-05-01T03:13:15.000Z,62.11
2023-05-01T03:14:15.000Z,62.12
2023-05-01T03:15:15.000Z,62.17
2023-05-01T03:16:14.000Z,61.96
2023-05-01T03:17:15.000Z,62.07
2023-05-01T03:18:14.000Z,61.92
2023-05-01T03:19:14.000Z,61.72
2023-05-01T03:20:15.000Z,61.81
2023-05-01T03:21:14.000Z,61.89
2023-05-01T03:22:14.000Z,61.85
2023-05-01T03:23:14.000Z,62.07
2023-05-01T03:24:15.000Z,61.87
2023-05-01T03:25:14.000Z,61.76
2023-05-01T03:26:14.000Z,61.94
2023-05-01T03:27:14.000Z,61.85
2023-05-01T03:28:15.000Z,61.30
2023-05-01T03:29:14.000Z,61.31
2023-05-01T03:30:15.000Z,61.52
2023-05-01T03:31:14.000Z,61.47
2023-05-01T03:32:16.000Z,61.71
2023-05-01T03:33:14.000Z,61.64
2023-05-01T03:34:14.000Z,61.60
2023-05-01T03:35:15.000Z,61.77
2023-05-01T03:36:15.000Z,61.72
2023-05-01T03:37:14.000Z,61.42
2023-05-01T03:38:14.000Z,61.36
2023-05-01T03:39:14.000Z,61.64
2023-05-01T03:40:15.000Z,61.63
2023-05-01T03:41:15.000Z,61.72
2023-05-01T03:42:14.000Z,61.53
2023-05-01T03:43:15.000Z,61.60
2023-05-01T03:44:14.000Z,61.75
2023-05-01T03:45:15.000Z,61.85
2023-05-01T03:46:14.000Z,61.59
2023-05-01T03:47:14.000Z,61.48
2023-05-01T03:48:15.000Z,61.52
2023-05-01T03:49:14.000Z,61.55
2023-05-01T03:50:15.000Z,61.42
2023-05-01T03:51:15.000Z,61.51
2023-05-01T03:52:15.000Z,61.54
2023-05-01T03:53:15.000Z,61.44
2023-05-01T03:54:14.000Z,61.45
2023-05-01T03:55:14.000Z,61.64
2023-05-01T03:56:15.000Z,61.66
2023-05-01T03:57:15.000Z,61.80
2023-05-01T03:58:15.000Z,61.77
2023-05-01T03:59:15.000Z,61.77
2023-05-01T04:00:15.000Z,61.89
2023-05-01T04:01:14.000Z,61.69
2023-05-01T04:02:15.000Z,61.83
2023-05-01T04:03:14.000Z,61.90
2023-05-01T04:04:14.000Z,61.46
2023-05-01T04:05:14.000Z,61.64
2023-05-01T04:06:15.000Z,61.74
2023-05-01T04:07:14.000Z,61.92
2023-05-01T04:08:14.000Z,62.00
2023-05-01T04:09:14.000Z,61.92
2023-05-01T04:10:15.000Z,62.00
2023-05-01T04:11:14.000Z,61.99
2023-05-01T04:12:14.000Z,62.07
2023-05-01T04:13:14.000Z,61.75
2023-05-01T04:14:14.000Z,61.66
2023-05-01T04:15:15.000Z,61.66
2023-05-01T04:16:14.000Z,61.81
2023-05-01T04:17:14.000Z,61.75
2023-05-01T04:18:14.000Z,61.76
2023-05-01T04:19:15.000Z,61.77
2023-05-01T04:20:15.000Z,61.83
2023-05-01T04:21:17.000Z,61.92
2023-05-01T04:22:15.000Z,61.99
2023-05-01T04:23:14.000Z,61.91
2023-05-01T04:24:15.000Z,62.03
2023-05-01T04:25:14.000Z,62.12
2023-05-01T04:26:15.000Z,61.97
2023-05-01T04:27:14.000Z,62.07
2023-05-01T04:28:15.000Z,62.03
2023-05-01T04:29:14.000Z,61.95
2023-05-01T04:30:15.000Z,62.15
2023-05-01T04:31:14.000Z,62.09
2023-05-01T04:32:15.000Z,62.02
2023-05-01T04:33:14.000Z,62.11
2023-05-01T04:34:14.000Z,62.13
2023-05-01T04:35:14.000Z,62.05
2023-05-01T04:36:14.000Z,62.07
2023-05-01T04:37:16.000Z,62.18
2023-05-01T04:38:14.000Z,62.22
2023-05-01T04:39:14.000Z,62.22
2023-05-01T04:40:14.000Z,62.23
2023-05-01T04:41:14.000Z,62.22
2023-05-01T04:42:14.000Z,62.11
2023-05-01T04:43:14.000Z,62.14
2023-05-01T04:44:14.000Z,62.23
2023-05-01T04:45:14.000Z,62.24
2023-05-01T04:46:14.000Z,62.22
2023-05-01T04:47:14.000Z,62.51
2023-05-01T04:48:14.000Z,62.20
2023-05-01T04:49:14.000Z,62.24
2023-05-01T04:50:14.000Z,62.13
2023-05-01T04:51:14.000Z,62.10
2023-05-01T04:52:14.000Z,62.24
2023-05-01T04:53:14.000Z,62.20
2023-05-01T04:54:14.000Z,62.15
2023-05-01T04:55:15.000Z,61.98
2023-05-01T04:56:14.000Z,62.25
2023-05-01T04:57:14.000Z,62.21
2023-05-01T04:58:14.000Z,62.10
2023-05-01T04:59:14.000Z,62.13
2023-05-01T05:00:14.000Z,62.19
2023-05-01T05:01:14.000Z,62.37
2023-05-01T05:02:14.000Z,62.37
2023-05-01T05:03:17.000Z,62.29
2023-05-01T05:04:15.000Z,62.08
2023-05-01T05:05:15.000Z,62.11
2023-05-01T05:06:15.000Z,62.14
2023-05-01T05:07:15.000Z,62.38
2023-05-01T05:08:15.000Z,62.40
2023-05-01T05:09:15.000Z,62.40
2023-05-01T05:10:15.000Z,62.36
2023-05-01T05:11:15.000Z,62.39
2023-05-01T05:12:15.000Z,62.30
2023-05-01T05:13:15.000Z,62.19
2023-05-01T05:14:15.000Z,62.22
2023-05-01T05:15:15.000Z,62.15
2023-05-01T05:16:15.000Z,62.12
2023-05-01T05:17:15.000Z,62.34
2023-05-01T05:18:15.000Z,62.48
2023-05-01T05:19:15.000Z,62.54
2023-05-01T05:20:15.000Z,62.35
2023-05-01T05:21:15.000Z,62.63
2023-05-01T05:22:15.000Z,62.48
2023-05-01T05:23:15.000Z,62.46
2023-05-01T05:24:15.000Z,62.22
2023-05-01T05:25:15.000Z,62.21
2023-05-01T05:26:15.000Z,62.33
2023-05-01T05:27:15.000Z,62.19
2023-05-01T05:28:15.000Z,62.16
2023-05-01T05:29:15.000Z,61.90
2023-05-01T05:30:15.000Z,61.91
2023-05-01T05:31:15.000Z,61.82
2023-05-01T05:32:15.000Z,61.96
2023-05-01T05:33:15.000Z,62.11
2023-05-01T05:34:15.000Z,61.94
2023-05-01T05:35:15.000Z,61.92
2023-05-01T05:36:15.000Z,61.82
2023-05-01T05:37:15.000Z,61.88
2023-05-01T05:38:14.000Z,61.82
2023-05-01T05:39:15.000Z,61.98
2023-05-01T05:40:15.000Z,61.99
2023-05-01T05:41:15.000Z,62.03
2023-05-01T05:42:15.000Z,62.19
2023-05-01T05:43:15.000Z,61.99
2023-05-01T05:44:15.000Z,61.97
2023-05-01T05:45:15.000Z,62.26
2023-05-01T05:46:15.000Z,62.32
2023-05-01T05:47:14.000Z,62.09
2023-05-01T05:48:14.000Z,62.07
2023-05-01T05:49:15.000Z,62.06
2023-05-01T05:50:14.000Z,61.91
2023-05-01T05:51:14.000Z,61.72
2023-05-01T05:52:15.000Z,61.62
2023-05-01T05:53:15.000Z,61.53
2023-05-01T05:54:14.000Z,61.40
2023-05-01T05:55:15.000Z,61.13
2023-05-01T05:56:15.000Z,61.18
2023-05-01T05:57:15.000Z,61.38
2023-05-01T05:58:20.000Z,61.50
2023-05-01T05:59:15.000Z,61.53
2023-05-01T06:00:16.000Z,61.72
2023-05-01T06:01:15.000Z,61.89
2023-05-01T06:02:15.000Z,61.38
2023-05-01T06:03:15.000Z,61.61
2023-05-01T06:04:15.000Z,61.34
2023-05-01T06:05:14.000Z,61.19
2023-05-01T06:06:15.000Z,61.17
2023-05-01T06:07:15.000Z,60.94
2023-05-01T06:08:14.000Z,61.19
2023-05-01T06:09:15.000Z,61.27
2023-05-01T06:10:14.000Z,61.01
2023-05-01T06:11:14.000Z,60.71
2023-05-01T06:12:14.000Z,60.68
2023-05-01T06:13:14.000Z,60.50
2023-05-01T06:14:15.000Z,60.53
2023-05-01T06:15:15.000Z,60.54
2023-05-01T06:16:14.000Z,60.33
2023-05-01T06:17:14.000Z,60.21
2023-05-01T06:18:14.000Z,60.42
2023-05-01T06:19:14.000Z,60.42
2023-05-01T06:20:15.000Z,60.21
2023-05-01T06:21:14.000Z,60.31
2023-05-01T06:22:14.000Z,60.28
2023-05-01T06:23:14.000Z,60.26
2023-05-01T06:24:14.000Z,60.42
2023-05-01T06:25:14.000Z,59.86
2023-05-01T06:26:14.000Z,59.90
2023-05-01T06:27:14.000Z,60.04
2023-05-01T06:28:14.000Z,60.10
2023-05-01T06:29:15.000Z,60.20
2023-05-01T06:30:15.000Z,60.15
2023-05-01T06:31:14.000Z,60.14
2023-05-01T06:32:15.000Z,60.30
2023-05-01T06:33:14.000Z,60.29
2023-05-01T06:34:14.000Z,60.25
2023-05-01T06:35:15.000Z,60.26
2023-05-01T06:36:14.000Z,60.03
2023-05-01T06:37:14.000Z,60.09
2023-05-01T06:38:14.000Z,60.25
2023-05-01T06:39:14.000Z,60.16
2023-05-01T06:40:14.000Z,60.06
2023-05-01T06:41:15.000Z,60.09
2023-05-01T06:42:15.000Z,60.18
2023-05-01T06:43:14.000Z,60.27
2023-05-01T06:44:14.000Z,60.39
2023-05-01T06:45:14.000Z,60.47
2023-05-01T06:46:14.000Z,60.70
2023-05-01T06:47:14.000Z,60.60
2023-05-01T06:48:14.000Z,60.58
2023-05-01T06:49:14.000Z,60.62
2023-05-01T06:50:14.000Z,60.56
2023-05-01T06:51:14.000Z,60.59
2023-05-01T06:52:14.000Z,60.69
2023-05-01T06:53:14.000Z,60.71
2023-05-01T06:54:14.000Z,60.81
2023-05-01T06:55:15.000Z,60.99
2023-05-01T06:56:14.000Z,61.03
2023-05-01T06:57:14.000Z,61.12
2023-05-01T06:58:14.000Z,61.32
2023-05-01T06:59:14.000Z,61.16
2023-05-01T07:00:17.000Z,61.29
2023-05-01T07:01:15.000Z,61.39
2023-05-01T07:02:16.000Z,61.11
2023-05-01T07:03:14.000Z,61.54
2023-05-01T07:04:14.000Z,61.47
2023-05-01T07:05:14.000Z,61.51
2023-05-01T07:06:14.000Z,61.35
2023-05-01T07:07:15.000Z,61.29
2023-05-01T07:08:14.000Z,61.47
2023-05-01T07:09:14.000Z,61.47
2023-05-01T07:10:15.000Z,61.53
2023-05-01T07:11:15.000Z,61.68
2023-05-01T07:12:15.000Z,61.62
2023-05-01T07:13:15.000Z,61.72
2023-05-01T07:14:14.000Z,61.77
2023-05-01T07:15:15.000Z,61.77
2023-05-01T07:16:14.000Z,62.02
2023-05-01T07:17:14.000Z,62.02
2023-05-01T07:18:16.000Z,62.01
2023-05-01T07:19:14.000Z,61.60
2023-05-01T07:20:15.000Z,61.61
2023-05-01T07:21:14.000Z,61.85
2023-05-01T07:22:14.000Z,61.87
2023-05-01T07:23:15.000Z,61.80
2023-05-01T07:24:15.000Z,61.87
2023-05-01T07:25:15.000Z,61.73
2023-05-01T07:26:14.000Z,61.83
2023-05-01T07:27:15.000Z,61.67
2023-05-01T07:28:17.000Z,61.77
2023-05-01T07:29:15.000Z,61.81
2023-05-01T07:30:15.000Z,61.90
2023-05-01T07:31:15.000Z,62.18
2023-05-01T07:32:14.000Z,62.19
2023-05-01T07:33:15.000Z,62.01
2023-05-01T07:34:16.000Z,61.82
2023-05-01T07:35:15.000Z,61.55
2023-05-01T07:36:17.000Z,62.04
2023-05-01T07:37:14.000Z,61.94
2023-05-01T07:38:15.000Z,62.05
2023-05-01T07:39:16.000Z,61.70
2023-05-01T07:40:14.000Z,61.33
2023-05-01T07:41:14.000Z,61.40
2023-05-01T07:42:14.000Z,61.09
2023-05-01T07:43:14.000Z,61.07
2023-05-01T07:44:14.000Z,61.07
2023-05-01T07:45:14.000Z,61.04
2023-05-01T07:46:14.000Z,61.20
2023-05-01T07:47:14.000Z,61.21
2023-05-01T07:48:14.000Z,61.47
2023-05-01T07:49:14.000Z,61.34
2023-05-01T07:50:15.000Z,61.45
2023-05-01T07:51:14.000Z,61.62
2023-05-01T07:52:14.000Z,61.27
2023-05-01T07:53:14.000Z,60.91
2023-05-01T07:54:15.000Z,61.04
2023-05-01T07:55:14.000Z,61.32
2023-05-01T07:56:14.000Z,61.23
2023-05-01T07:57:14.000Z,61.20
2023-05-01T07:58:15.000Z,61.15
2023-05-01T07:59:14.000Z,60.68
2023-05-01T08:00:15.000Z,60.85
2023-05-01T08:01:14.000Z,60.81
2023-05-01T08:02:15.000Z,60.81
2023-05-01T08:03:14.000Z,60.77
2023-05-01T08:04:15.000Z,60.85
2023-05-01T08:05:14.000Z,61.06
2023-05-01T08:06:14.000Z,61.23
2023-05-01T08:07:14.000Z,61.20
2023-05-01T08:08:19.000Z,61.42
2023-05-01T08:09:15.000Z,61.44
2023-05-01T08:10:15.000Z,61.32
2023-05-01T08:11:15.000Z,61.05
2023-05-01T08:12:14.000Z,60.98
2023-05-01T08:13:14.000Z,61.07
2023-05-01T08:14:16.000Z,61.14
2023-05-01T08:15:14.000Z,60.98
2023-05-01T08:16:14.000Z,61.15
2023-05-01T08:17:14.000Z,61.32
2023-05-01T08:18:19.000Z,61.45
2023-05-01T08:19:14.000Z,61.73
2023-05-01T08:20:15.000Z,61.63
2023-05-01T08:21:14.000Z,61.44
2023-05-01T08:22:14.000Z,61.58
2023-05-01T08:23:15.000Z,61.68
2023-05-01T08:24:14.000Z,61.80
2023-05-01T08:25:14.000Z,61.71
2023-05-01T08:26:15.000Z,61.81
2023-05-01T08:27:15.000Z,61.78
2023-05-01T08:28:16.000Z,61.78
2023-05-01T08:29:14.000Z,61.99
2023-05-01T08:30:14.000Z,61.72
2023-05-01T08:31:15.000Z,61.84
2023-05-01T08:32:16.000Z,61.95
2023-05-01T08:33:15.000Z,61.92
2023-05-01T08:34:16.000Z,62.16
2023-05-01T08:35:14.000Z,62.01
2023-05-01T08:36:15.000Z,61.87
2023-05-01T08:37:15.000Z,61.81
2023-05-01T08:38:14.000Z,61.89
2023-05-01T08:39:14.000Z,61.68
2023-05-01T08:40:14.000Z,61.72
2023-05-01T08:41:19.000Z,61.24
2023-05-01T08:42:15.000Z,61.49
2023-05-01T08:43:15.000Z,61.52
2023-05-01T08:44:18.000Z,61.60
2023-05-01T08:45:17.000Z,61.60
2023-05-01T08:46:25.000Z,61.62
2023-05-01T08:47:16.000Z,61.54
2023-05-01T08:48:15.000Z,61.46
2023-05-01T08:49:15.000Z,61.50
2023-05-01T08:50:16.000Z,61.54
2023-05-01T08:51:16.000Z,61.33
2023-05-01T08:52:14.000Z,61.27
2023-05-01T08:53:15.000Z,61.53
2023-05-01T08:54:16.000Z,61.34
2023-05-01T08:55:14.000Z,61.36
2023-05-01T08:56:15.000Z,61.46
2023-05-01T08:57:15.000Z,61.46
2023-05-01T08:58:16.000Z,61.40
2023-05-01T08:59:16.000Z,61.49
2023-05-01T09:00:18.000Z,61.51
2023-05-01T09:01:15.000Z,61.65
2023-05-01T09:02:15.000Z,61.64
2023-05-01T09:03:15.000Z,61.50
2023-05-01T09:04:15.000Z,61.25
2023-05-01T09:05:16.000Z,61.12
2023-05-01T09:06:15.000Z,60.83
2023-05-01T09:07:15.000Z,60.76
2023-05-01T09:08:14.000Z,61.38
2023-05-01T09:09:14.000Z,61.21
2023-05-01T09:10:16.000Z,61.18
2023-05-01T09:11:14.000Z,60.95
2023-05-01T09:12:21.000Z,60.72
2023-05-01T09:13:14.000Z,60.64
2023-05-01T09:14:15.000Z,60.48
2023-05-01T09:15:14.000Z,60.44
2023-05-01T09:16:14.000Z,60.18
2023-05-01T09:17:14.000Z,60.37
2023-05-01T09:18:14.000Z,59.89
2023-05-01T09:19:14.000Z,60.21
2023-05-01T09:20:16.000Z,60.22
2023-05-01T09:21:14.000Z,59.84
2023-05-01T09:22:16.000Z,59.99
2023-05-01T09:23:14.000Z,59.61
2023-05-01T09:24:14.000Z,59.28
2023-05-01T09:25:14.000Z,59.45
2023-05-01T09:26:14.000Z,59.49
2023-05-01T09:27:14.000Z,58.50
2023-05-01T09:28:14.000Z,59.01
2023-05-01T09:29:34.000Z,59.44
2023-05-01T09:30:24.000Z,59.72
2023-05-01T09:31:20.000Z,59.65
2023-05-01T09:32:23.000Z,59.54
2023-05-01T09:33:17.000Z,59.46
2023-05-01T09:34:20.000Z,59.28
2023-05-01T09:35:16.000Z,59.36
2023-05-01T09:36:15.000Z,59.00
2023-05-01T09:37:25.000Z,58.93
2023-05-01T09:38:22.000Z,59.26
2023-05-01T09:39:21.000Z,58.99
2023-05-01T09:40:14.000Z,59.75
2023-05-01T09:41:14.000Z,59.51
2023-05-01T09:42:22.000Z,59.74
2023-05-01T09:43:23.000Z,59.52
2023-05-01T09:44:17.000Z,59.62
2023-05-01T09:45:15.000Z,59.56
2023-05-01T09:46:14.000Z,59.41
2023-05-01T09:47:20.000Z,59.49
2023-05-01T09:48:15.000Z,59.52
2023-05-01T09:49:14.000Z,58.49
2023-05-01T09:50:24.000Z,59.05
2023-05-01T09:51:23.000Z,59.01
2023-05-01T09:52:14.000Z,59.58
2023-05-01T09:53:14.000Z,59.41
2023-05-01T09:54:18.000Z,59.20
2023-05-01T09:55:16.000Z,58.92
2023-05-01T09:56:14.000Z,58.29
2023-05-01T09:57:14.000Z,58.71
2023-05-01T09:58:25.000Z,58.88
2023-05-01T09:59:16.000Z,58.67
2023-05-01T10:00:15.000Z,58.66
2023-05-01T10:01:14.000Z,58.43
2023-05-01T10:02:37.000Z,58.72
2023-05-01T10:03:14.000Z,59.02
2023-05-01T10:04:14.000Z,59.39
2023-05-01T10:05:14.000Z,59.17
2023-05-01T10:06:24.000Z,58.66
2023-05-01T10:07:14.000Z,58.10
2023-05-01T10:08:17.000Z,58.38
2023-05-01T10:09:26.000Z,58.40
2023-05-01T10:10:18.000Z,58.54
2023-05-01T10:11:14.000Z,58.37
2023-05-01T10:12:22.000Z,57.80
2023-05-01T10:13:15.000Z,57.81
2023-05-01T10:14:14.000Z,57.69
2023-05-01T10:15:14.000Z,57.61
2023-05-01T10:16:24.000Z,57.58
2023-05-01T10:17:18.000Z,57.83
2023-05-01T10:18:15.000Z,58.57
2023-05-01T10:19:17.000Z,58.16
2023-05-01T10:20:14.000Z,57.55
2023-05-01T10:21:15.000Z,57.13
2023-05-01T10:22:15.000Z,57.24
2023-05-01T10:23:14.000Z,57.71
2023-05-01T10:24:15.000Z,58.05
2023-05-01T10:25:16.000Z,58.14
2023-05-01T10:26:16.000Z,58.04
2023-05-01T10:27:16.000Z,57.79
2023-05-01T10:28:14.000Z,57.43
2023-05-01T10:29:14.000Z,57.67
2023-05-01T10:30:15.000Z,57.43
2023-05-01T10:31:14.000Z,57.24
2023-05-01T10:32:14.000Z,57.29
2023-05-01T10:33:14.000Z,57.10
2023-05-01T10:34:17.000Z,57.23
2023-05-01T10:35:19.000Z,56.88
2023-05-01T10:36:19.000Z,55.62
2023-05-01T10:37:20.000Z,56.49
2023-05-01T10:38:24.000Z,55.30
2023-05-01T10:39:28.000Z,56.03
2023-05-01T10:40:24.000Z,56.80
2023-05-01T10:41:15.000Z,56.79
2023-05-01T10:42:15.000Z,56.65
2023-05-01T10:43:27.000Z,55.92
2023-05-01T10:44:22.000Z,56.42
2023-05-01T10:45:25.000Z,56.35
2023-05-01T10:46:34.000Z,55.56
2023-05-01T10:47:24.000Z,55.58
2023-05-01T10:48:24.000Z,55.82
2023-05-01T10:49:14.000Z,56.51
2023-05-01T10:50:17.000Z,56.39
2023-05-01T10:51:22.000Z,56.35
2023-05-01T10:52:14.000Z,56.10
2023-05-01T10:53:15.000Z,55.29
2023-05-01T10:54:21.000Z,55.83
2023-05-01T10:55:25.000Z,56.19
2023-05-01T10:56:49.000Z,54.69
2023-05-01T10:57:34.000Z,54.78
2023-05-01T10:58:24.000Z,54.43
2023-05-01T10:59:14.000Z,55.40
2023-05-01T11:00:15.000Z,55.50
2023-05-01T11:01:24.000Z,55.72
2023-05-01T11:02:20.000Z,54.80
2023-05-01T11:03:34.000Z,55.11
2023-05-01T11:04:34.000Z,55.42
2023-05-01T11:05:14.000Z,55.90
2023-05-01T11:06:14.000Z,53.55
2023-05-01T11:07:16.000Z,53.64
2023-05-01T11:08:24.000Z,54.55
2023-05-01T11:09:24.000Z,54.78
2023-05-01T11:10:24.000Z,53.48
2023-05-01T11:11:35.000Z,54.37
2023-05-01T11:12:34.000Z,55.48
2023-05-01T11:13:14.000Z,55.54
2023-05-01T11:14:14.000Z,55.69
2023-05-01T11:15:24.000Z,54.58
2023-05-01T11:16:41.000Z,54.54
2023-05-01T11:17:34.000Z,54.51
2023-05-01T11:18:14.000Z,54.71
2023-05-01T11:19:35.000Z,53.65
2023-05-01T11:20:24.000Z,53.42
2023-05-01T11:21:15.000Z,53.94
2023-05-01T11:22:14.000Z,54.26
2023-05-01T11:23:16.000Z,54.15
2023-05-01T11:24:16.000Z,54.55
2023-05-01T11:25:22.000Z,54.66
2023-05-01T11:26:15.000Z,52.96
2023-05-01T11:27:14.000Z,53.25
2023-05-01T11:28:17.000Z,53.86
2023-05-01T11:29:15.000Z,54.76
2023-05-01T11:30:15.000Z,53.76
2023-05-01T11:31:19.000Z,54.06
2023-05-01T11:32:18.000Z,53.75
2023-05-01T11:33:21.000Z,54.16
2023-05-01T11:34:15.000Z,53.87
2023-05-01T11:35:23.000Z,53.39
2023-05-01T11:36:15.000Z,53.88
2023-05-01T11:37:14.000Z,53.80
2023-05-01T11:38:17.000Z,53.68
2023-05-01T11:39:16.000Z,54.43
2023-05-01T11:40:22.000Z,54.22
2023-05-01T11:41:18.000Z,54.72
2023-05-01T11:42:14.000Z,54.89
2023-05-01T11:43:14.000Z,55.25
2023-05-01T11:44:15.000Z,54.78
2023-05-01T11:45:14.000Z,54.20
2023-05-01T11:46:21.000Z,54.48
2023-05-01T11:47:14.000Z,54.20
2023-05-01T11:48:16.000Z,54.55
2023-05-01T11:49:25.000Z,53.86
2023-05-01T11:50:15.000Z,53.94
2023-05-01T11:51:14.000Z,54.60
2023-05-01T11:52:13.000Z,54.26
2023-05-01T11:53:14.000Z,54.46
2023-05-01T11:54:14.000Z,54.36
2023-05-01T11:55:14.000Z,53.21
2023-05-01T11:56:20.000Z,54.03
2023-05-01T11:57:15.000Z,53.83
2023-05-01T11:58:14.000Z,53.50
2023-05-01T11:59:14.000Z,53.49
2023-05-01T12:00:23.000Z,53.33
2023-05-01T12:01:15.000Z,53.32
2023-05-01T12:02:18.000Z,54.04
2023-05-01T12:03:13.000Z,53.66
2023-05-01T12:04:24.000Z,54.22
2023-05-01T12:05:14.000Z,54.21
2023-05-01T12:06:14.000Z,54.04
2023-05-01T12:07:22.000Z,54.22
2023-05-01T12:08:22.000Z,54.79
2023-05-01T12:09:16.000Z,55.26
2023-05-01T12:10:15.000Z,55.82
2023-05-01T12:11:15.000Z,55.91
2023-05-01T12:12:15.000Z,56.21
2023-05-01T12:13:15.000Z,56.12
2023-05-01T12:14:14.000Z,55.54
2023-05-01T12:15:14.000Z,55.59
2023-05-01T12:16:14.000Z,55.19
2023-05-01T12:17:14.000Z,55.19
2023-05-01T12:18:15.000Z,55.36
2023-05-01T12:19:15.000Z,55.37
2023-05-01T12:20:14.000Z,55.37
2023-05-01T12:21:14.000Z,54.91
2023-05-01T12:22:14.000Z,55.20
2023-05-01T12:23:19.000Z,54.63
2023-05-01T12:24:17.000Z,54.73
2023-05-01T12:25:15.000Z,55.00
2023-05-01T12:26:19.000Z,55.03
2023-05-01T12:27:14.000Z,54.57
2023-05-01T12:28:17.000Z,54.09
2023-05-01T12:29:14.000Z,54.24
2023-05-01T12:30:23.000Z,54.59
2023-05-01T12:31:14.000Z,54.39
2023-05-01T12:32:15.000Z,54.32
2023-05-01T12:33:16.000Z,54.10
2023-05-01T12:34:14.000Z,54.39
2023-05-01T12:35:14.000Z,54.53
2023-05-01T12:36:14.000Z,55.26
2023-05-01T12:37:14.000Z,55.02
2023-05-01T12:38:16.000Z,54.54
2023-05-01T12:39:14.000Z,54.45
2023-05-01T12:40:14.000Z,53.76
2023-05-01T12:41:14.000Z,54.02
2023-05-01T12:42:15.000Z,54.29
2023-05-01T12:43:15.000Z,53.55
2023-05-01T12:44:16.000Z,53.89
2023-05-01T12:45:14.000Z,53.36
2023-05-01T12:46:15.000Z,53.92
2023-05-01T12:47:14.000Z,53.87
2023-05-01T12:48:14.000Z,54.73
2023-05-01T12:49:18.000Z,54.83
2023-05-01T12:50:14.000Z,53.70
2023-05-01T12:51:19.000Z,53.12
2023-05-01T12:52:14.000Z,53.79